createdAt,value
2018-07-28T00:00:39.552Z,96401
2018-07-28T00:01:55.408Z,96397
2018-07-28T00:03:11.348Z,96398
2018-07-28T00:04:27.210Z,96397
2018-07-28T00:05:43.098Z,96393
2018-07-28T00:06:58.992Z,96400
2018-07-28T00:08:14.930Z,96399
2018-07-28T00:09:30.811Z,96401
2018-07-28T00:10:46.709Z,96398
2018-07-28T00:12:02.571Z,96401
2018-07-28T00:13:18.488Z,96401
2018-07-28T00:14:34.427Z,96399
2018-07-28T00:15:50.318Z,96399
2018-07-28T00:17:06.203Z,96403
2018-07-28T00:18:22.067Z,96405
2018-07-28T00:19:37.992Z,96400
2018-07-28T00:20:53.990Z,96402
2018-07-28T00:22:09.846Z,96404
2018-07-28T00:23:25.743Z,96406
2018-07-28T00:24:42.624Z,96408
2018-07-28T00:25:58.498Z,96403
2018-07-28T00:27:14.344Z,96405
2018-07-28T00:28:30.223Z,96406
2018-07-28T00:29:46.116Z,96403
2018-07-28T00:31:02.008Z,96398
2018-07-28T00:32:17.865Z,96399
2018-07-28T00:33:33.752Z,96396
2018-07-28T00:34:49.667Z,96394
2018-07-28T00:36:05.532Z,96388
2018-07-28T00:37:21.430Z,96389
2018-07-28T00:38:37.284Z,96388
2018-07-28T00:39:53.162Z,96393
2018-07-28T00:41:09.045Z,96392
2018-07-28T00:42:24.895Z,96387
2018-07-28T00:43:40.769Z,96389
2018-07-28T00:44:56.662Z,96389
2018-07-28T00:46:12.549Z,96391
2018-07-28T00:47:28.430Z,96392
2018-07-28T00:48:44.309Z,96390
2018-07-28T00:50:00.192Z,96396
2018-07-28T00:51:16.050Z,96392
2018-07-28T00:52:31.936Z,96388
2018-07-28T00:53:47.796Z,96391
2018-07-28T00:55:03.692Z,96391
2018-07-28T00:56:19.573Z,96386
2018-07-28T00:57:35.435Z,96387
2018-07-28T00:58:51.312Z,96386
2018-07-28T01:00:07.204Z,96388
2018-07-28T01:01:23.083Z,96387
2018-07-28T01:02:38.976Z,96382
2018-07-28T01:03:54.830Z,96383
2018-07-28T01:05:10.746Z,96381
2018-07-28T01:06:26.658Z,96379
2018-07-28T01:07:42.551Z,96377
2018-07-28T01:08:58.430Z,96374
2018-07-28T01:10:14.356Z,96367
2018-07-28T01:11:30.263Z,96365
2018-07-28T01:12:46.163Z,96367
2018-07-28T01:14:03.044Z,96366
2018-07-28T01:15:18.909Z,96366
2018-07-28T01:16:34.774Z,96365
2018-07-28T01:17:50.655Z,96365
2018-07-28T01:19:06.531Z,96368
2018-07-28T01:20:22.404Z,96369
2018-07-28T01:21:38.306Z,96364
2018-07-28T01:22:54.231Z,96363
2018-07-28T01:24:10.140Z,96366
2018-07-28T01:25:26.031Z,96367
2018-07-28T01:26:41.961Z,96368
2018-07-28T01:27:57.860Z,96368
2018-07-28T01:29:13.765Z,96368
2018-07-28T01:30:29.657Z,96365
2018-07-28T01:31:45.538Z,96364
2018-07-28T01:33:01.387Z,96362
2018-07-28T01:34:17.273Z,96354
2018-07-28T01:35:33.148Z,96352
2018-07-28T01:36:48.994Z,96355
2018-07-28T01:38:04.865Z,96354
2018-07-28T01:39:20.773Z,96354
2018-07-28T01:40:36.643Z,96356
2018-07-28T01:41:52.523Z,96359
2018-07-28T01:43:08.414Z,96356
2018-07-28T01:44:24.299Z,96356
2018-07-28T01:45:40.175Z,96357
2018-07-28T01:46:56.066Z,96355
2018-07-28T01:48:11.951Z,96357
2018-07-28T01:49:27.895Z,96357
2018-07-28T01:50:43.719Z,96353
2018-07-28T01:51:59.621Z,96353
2018-07-28T01:53:15.515Z,96353
2018-07-28T01:54:31.425Z,96348
2018-07-28T01:55:47.267Z,96347
2018-07-28T01:57:03.161Z,96346
2018-07-28T01:58:19.035Z,96343
2018-07-28T01:59:34.941Z,96341
2018-07-28T02:00:50.841Z,96339
2018-07-28T02:02:06.723Z,96339
2018-07-28T02:03:22.595Z,96334
2018-07-28T02:04:38.464Z,96337
2018-07-28T02:05:54.376Z,96338
2018-07-28T02:07:10.275Z,96337
2018-07-28T02:08:26.156Z,96338
2018-07-28T02:09:42.026Z,96338
2018-07-28T02:10:57.927Z,96334
2018-07-28T02:12:13.792Z,96334
2018-07-28T02:13:29.658Z,96329
2018-07-28T02:14:45.518Z,96331
2018-07-28T02:16:01.395Z,96331
2018-07-28T02:17:17.302Z,96332
2018-07-28T02:18:33.196Z,96331
2018-07-28T02:19:49.076Z,96330
2018-07-28T02:21:04.967Z,96329
2018-07-28T02:22:20.834Z,96327
2018-07-28T02:23:36.694Z,96327
2018-07-28T02:24:52.579Z,96326
2018-07-28T02:26:08.483Z,96321
2018-07-28T02:27:24.364Z,96323
2018-07-28T02:28:40.240Z,96320
2018-07-28T02:29:56.076Z,96320
2018-07-28T02:31:11.944Z,96319
2018-07-28T02:32:27.824Z,96317
2018-07-28T02:33:43.710Z,96317
2018-07-28T02:34:59.553Z,96317
2018-07-28T02:36:15.421Z,96315
2018-07-28T02:37:31.303Z,96312
2018-07-28T02:38:47.161Z,96315
2018-07-28T02:40:03.011Z,96310
2018-07-28T02:41:18.930Z,96311
2018-07-28T02:42:34.813Z,96311
2018-07-28T02:43:51.676Z,96311
2018-07-28T02:45:07.539Z,96312
2018-07-28T02:46:23.431Z,96316
2018-07-28T02:47:39.315Z,96324
2018-07-28T02:48:55.187Z,96320
2018-07-28T02:50:11.066Z,96322
2018-07-28T02:51:26.897Z,96325
2018-07-28T02:52:42.777Z,96328
2018-07-28T02:53:58.628Z,96328
2018-07-28T02:55:14.500Z,96332
2018-07-28T02:56:30.372Z,96331
2018-07-28T02:57:46.252Z,96330
2018-07-28T02:59:02.150Z,96335
2018-07-28T03:00:18.110Z,96337
2018-07-28T03:01:33.870Z,96333
2018-07-28T03:02:49.801Z,96336
2018-07-28T03:04:05.684Z,96334
2018-07-28T03:05:22.560Z,96337
2018-07-28T03:06:38.410Z,96338
2018-07-28T03:07:54.298Z,96338
2018-07-28T03:09:10.155Z,96338
2018-07-28T03:10:26.028Z,96346
2018-07-28T03:11:41.921Z,96344
2018-07-28T03:12:57.804Z,96343
2018-07-28T03:14:13.708Z,96338
2018-07-28T03:15:29.579Z,96344
2018-07-28T03:16:45.460Z,96339
2018-07-28T03:18:01.345Z,96340
2018-07-28T03:19:17.228Z,96339
2018-07-28T03:20:33.117Z,96338
2018-07-28T03:21:48.987Z,96337
2018-07-28T03:23:04.868Z,96335
2018-07-28T03:24:20.730Z,96333
2018-07-28T03:25:36.585Z,96335
2018-07-28T03:26:52.465Z,96332
2018-07-28T03:28:08.329Z,96338
2018-07-28T03:29:24.207Z,96341
2018-07-28T03:30:40.090Z,96339
2018-07-28T03:31:55.937Z,96340
2018-07-28T03:33:11.833Z,96346
2018-07-28T03:34:27.701Z,96348
2018-07-28T03:35:43.565Z,96345
2018-07-28T03:36:59.445Z,96347
2018-07-28T03:38:15.341Z,96346
2018-07-28T03:39:31.204Z,96346
2018-07-28T03:40:47.096Z,96346
2018-07-28T03:42:02.989Z,96349
2018-07-28T03:43:18.869Z,96351
2018-07-28T03:44:34.760Z,96355
2018-07-28T03:45:50.630Z,96350
2018-07-28T03:47:06.495Z,96353
2018-07-28T03:48:22.395Z,96355
2018-07-28T03:49:38.273Z,96351
2018-07-28T03:50:54.160Z,96348
2018-07-28T03:52:10.998Z,96352
2018-07-28T03:53:26.877Z,96350
2018-07-28T03:54:42.801Z,96354
2018-07-28T03:55:58.664Z,96353
2018-07-28T03:57:14.548Z,96355
2018-07-28T03:58:30.400Z,96357
2018-07-28T03:59:46.306Z,96356
2018-07-28T04:01:02.196Z,96356
2018-07-28T04:02:18.107Z,96358
2018-07-28T04:03:33.952Z,96359
2018-07-28T04:04:49.816Z,96358
2018-07-28T04:06:05.713Z,96359
2018-07-28T04:07:21.609Z,96360
2018-07-28T04:08:37.476Z,96363
2018-07-28T04:09:53.354Z,96366
2018-07-28T04:11:09.234Z,96357
2018-07-28T04:12:25.103Z,96361
2018-07-28T04:13:40.963Z,96363
2018-07-28T04:14:56.837Z,96360
2018-07-28T04:16:12.679Z,96363
2018-07-28T04:17:28.547Z,96371
2018-07-28T04:18:44.410Z,96370
2018-07-28T04:20:00.292Z,96372
2018-07-28T04:21:16.177Z,96371
2018-07-28T04:22:32.084Z,96372
2018-07-28T04:23:47.978Z,96373
2018-07-28T04:25:03.881Z,96369
2018-07-28T04:26:19.742Z,96369
2018-07-28T04:27:35.621Z,96368
2018-07-28T04:28:51.478Z,96374
2018-07-28T04:30:07.379Z,96371
2018-07-28T04:31:23.237Z,96376
2018-07-28T04:32:39.103Z,96381
2018-07-28T04:33:54.961Z,96379
2018-07-28T04:36:55.590Z,96378
2018-07-28T04:38:11.435Z,96376
2018-07-28T04:39:27.292Z,96377
2018-07-28T04:40:43.150Z,96379
2018-07-28T04:41:59.009Z,96382
2018-07-28T04:43:14.896Z,96382
2018-07-28T04:44:30.731Z,96384
2018-07-28T04:45:46.578Z,96379
2018-07-28T04:47:02.490Z,96378
2018-07-28T04:48:18.374Z,96381
2018-07-28T04:49:34.269Z,96378
2018-07-28T04:50:50.138Z,96377
2018-07-28T04:52:06.054Z,96375
2018-07-28T04:53:21.928Z,96379
2018-07-28T04:54:37.940Z,96377
2018-07-28T04:55:53.773Z,96380
2018-07-28T04:57:09.692Z,96378
2018-07-28T04:58:25.556Z,96380
2018-07-28T04:59:41.425Z,96383
2018-07-28T05:00:57.282Z,96383
2018-07-28T05:02:13.188Z,96380
2018-07-28T05:03:29.073Z,96382
2018-07-28T05:04:44.944Z,96384
2018-07-28T05:06:00.801Z,96385
2018-07-28T05:07:16.731Z,96382
2018-07-28T05:08:32.568Z,96384
2018-07-28T05:09:48.460Z,96384
2018-07-28T05:11:04.311Z,96381
2018-07-28T05:12:20.205Z,96379
2018-07-28T05:13:36.070Z,96379
2018-07-28T05:14:51.935Z,96378
2018-07-28T05:16:07.819Z,96380
2018-07-28T05:17:23.714Z,96377
2018-07-28T05:18:39.604Z,96377
2018-07-28T05:19:55.488Z,96375
2018-07-28T05:21:11.363Z,96379
2018-07-28T05:22:27.285Z,96375
2018-07-28T05:23:43.186Z,96381
2018-07-28T05:24:59.063Z,96375
2018-07-28T05:26:14.950Z,96381
2018-07-28T05:27:30.867Z,96380
2018-07-28T05:28:46.750Z,96379
2018-07-28T05:30:02.629Z,96376
2018-07-28T05:31:18.485Z,96377
2018-07-28T05:32:34.356Z,96378
2018-07-28T05:33:50.293Z,96378
2018-07-28T05:35:06.191Z,96381
2018-07-28T05:36:22.087Z,96375
2018-07-28T05:37:37.997Z,96374
2018-07-28T05:38:53.965Z,96381
2018-07-28T05:40:09.801Z,96381
2018-07-28T05:41:25.696Z,96386
2018-07-28T05:42:41.577Z,96384
2018-07-28T05:43:57.588Z,96386
2018-07-28T05:45:13.577Z,96382
2018-07-28T05:46:29.540Z,96387
2018-07-28T05:47:45.470Z,96379
2018-07-28T05:49:01.352Z,96382
2018-07-28T05:50:17.363Z,96379
2018-07-28T05:51:33.291Z,96376
2018-07-28T05:52:49.196Z,96377
2018-07-28T05:54:05.090Z,96376
2018-07-28T05:55:21.027Z,96381
2018-07-28T05:56:36.938Z,96380
2018-07-28T05:57:52.842Z,96385
2018-07-28T05:59:08.774Z,96390
2018-07-28T06:00:24.685Z,96392
2018-07-28T06:01:40.581Z,96400
2018-07-28T06:02:56.472Z,96409
2018-07-28T06:04:12.456Z,96418
2018-07-28T06:05:28.369Z,96427
2018-07-28T06:06:44.233Z,96425
2018-07-28T06:08:00.126Z,96419
2018-07-28T06:09:15.992Z,96414
2018-07-28T06:10:31.906Z,96412
2018-07-28T06:11:47.855Z,96410
2018-07-28T06:13:03.752Z,96414
2018-07-28T06:14:19.678Z,96415
2018-07-28T06:15:35.585Z,96418
2018-07-28T06:16:51.429Z,96422
2018-07-28T06:18:07.322Z,96418
2018-07-28T06:19:23.231Z,96413
2018-07-28T06:20:39.110Z,96407
2018-07-28T06:21:55.050Z,96405
2018-07-28T06:23:10.906Z,96402
2018-07-28T06:24:26.811Z,96402
2018-07-28T06:25:42.694Z,96399
2018-07-28T06:26:58.650Z,96400
2018-07-28T06:28:15.547Z,96397
2018-07-28T06:29:31.424Z,96397
2018-07-28T06:30:47.310Z,96392
2018-07-28T06:32:03.262Z,96387
2018-07-28T06:33:19.202Z,96376
2018-07-28T06:34:35.115Z,96378
2018-07-28T06:35:51.034Z,96376
2018-07-28T06:37:06.920Z,96378
2018-07-28T06:38:22.815Z,96373
2018-07-28T06:39:38.793Z,96385
2018-07-28T06:40:54.620Z,96387
2018-07-28T06:42:10.561Z,96389
2018-07-28T06:43:26.543Z,96389
2018-07-28T06:44:42.464Z,96391
2018-07-28T06:45:58.358Z,96394
2018-07-28T06:47:14.339Z,96403
2018-07-28T06:48:30.237Z,96402
2018-07-28T06:49:46.166Z,96404
2018-07-28T06:51:02.152Z,96403
2018-07-28T06:52:18.100Z,96401
2018-07-28T06:53:34.143Z,96401
2018-07-28T06:54:50.044Z,96399
2018-07-28T06:56:05.968Z,96397
2018-07-28T06:57:22.922Z,96399
2018-07-28T06:58:38.903Z,96395
2018-07-28T06:59:54.692Z,96392
2018-07-28T07:01:10.604Z,96393
2018-07-28T07:02:26.560Z,96391
2018-07-28T07:03:42.629Z,96401
2018-07-28T07:04:58.552Z,96401
2018-07-28T07:06:14.493Z,96408
2018-07-28T07:07:30.450Z,96413
2018-07-28T07:08:46.391Z,96410
2018-07-28T07:10:02.331Z,96411
2018-07-28T07:11:18.237Z,96414
2018-07-28T07:12:34.180Z,96412
2018-07-28T07:13:50.262Z,96418
2018-07-28T07:15:06.145Z,96419
2018-07-28T07:16:22.088Z,96420
2018-07-28T07:17:38.062Z,96421
2018-07-28T07:18:54.988Z,96422
2018-07-28T07:20:10.895Z,96425
2018-07-28T07:21:26.829Z,96427
2018-07-28T07:22:42.810Z,96428
2018-07-28T07:23:58.740Z,96432
2018-07-28T07:25:14.706Z,96430
2018-07-28T07:26:30.643Z,96435
2018-07-28T07:27:46.581Z,96439
2018-07-28T07:29:02.481Z,96447
2018-07-28T07:30:18.430Z,96450
2018-07-28T07:31:34.285Z,96442
2018-07-28T07:32:50.258Z,96453
2018-07-28T07:34:06.172Z,96458
2018-07-28T07:35:22.093Z,96463
2018-07-28T07:36:38.130Z,96468
2018-07-28T07:37:55.156Z,96474
2018-07-28T07:39:11.056Z,96480
2018-07-28T07:40:27.323Z,96489
2018-07-28T07:41:43.269Z,96498
2018-07-28T07:42:59.194Z,96507
2018-07-28T07:44:15.145Z,96515
2018-07-28T07:45:31.103Z,96518
2018-07-28T07:46:47.093Z,96523
2018-07-28T07:48:03.065Z,96542
2018-07-28T07:49:19.064Z,96543
2018-07-28T07:50:35.067Z,96549
2018-07-28T07:51:51.053Z,96552
2018-07-28T07:53:08.190Z,96568
2018-07-28T07:54:24.253Z,96576
2018-07-28T07:55:40.232Z,96593
2018-07-28T07:56:56.162Z,96606
2018-07-28T07:58:12.164Z,96620
2018-07-28T07:59:28.093Z,96627
2018-07-28T08:00:44.032Z,96622
2018-07-28T08:01:59.940Z,96634
2018-07-28T08:03:15.908Z,96629
2018-07-28T08:04:31.784Z,96636
2018-07-28T08:05:47.736Z,96642
2018-07-28T08:07:03.711Z,96635
2018-07-28T08:08:19.615Z,96644
2018-07-28T08:09:35.501Z,96643
2018-07-28T08:10:51.410Z,96651
2018-07-28T08:12:07.310Z,96651
2018-07-28T08:13:23.326Z,96643
2018-07-28T08:14:39.290Z,96635
2018-07-28T08:15:55.226Z,96636
2018-07-28T08:17:11.186Z,96639
2018-07-28T08:18:27.146Z,96639
2018-07-28T08:19:43.055Z,96638
2018-07-28T08:20:59.081Z,96638
2018-07-28T08:22:14.960Z,96635
2018-07-28T08:23:30.870Z,96640
2018-07-28T08:24:46.768Z,96642
2018-07-28T08:26:02.657Z,96646
2018-07-28T08:27:18.594Z,96650
2018-07-28T08:28:34.499Z,96652
2018-07-28T08:29:50.410Z,96650
2018-07-28T08:31:06.364Z,96651
2018-07-28T08:32:22.283Z,96659
2018-07-28T08:33:38.177Z,96663
2018-07-28T08:34:54.081Z,96659
2018-07-28T08:36:10.019Z,96665
2018-07-28T08:37:25.897Z,96662
2018-07-28T08:38:41.908Z,96655
2018-07-28T08:39:57.875Z,96657
2018-07-28T08:41:13.759Z,96647
2018-07-28T08:42:29.693Z,96647
2018-07-28T08:43:45.618Z,96647
2018-07-28T08:45:01.587Z,96654
2018-07-28T08:46:17.501Z,96650
2018-07-28T08:47:33.460Z,96661
2018-07-28T08:48:49.444Z,96663
2018-07-28T08:50:05.268Z,96664
2018-07-28T08:51:21.207Z,96664
2018-07-28T08:52:37.155Z,96667
2018-07-28T08:53:53.105Z,96672
2018-07-28T08:55:09.051Z,96669
2018-07-28T08:56:24.973Z,96669
2018-07-28T08:57:40.903Z,96671
2018-07-28T08:58:56.794Z,96670
2018-07-28T09:00:12.711Z,96671
2018-07-28T09:01:28.619Z,96668
2018-07-28T09:02:44.587Z,96672
2018-07-28T09:04:00.509Z,96673
2018-07-28T09:05:16.454Z,96675
2018-07-28T09:06:32.374Z,96672
2018-07-28T09:07:48.280Z,96676
2018-07-28T09:09:04.297Z,96675
2018-07-28T09:10:20.213Z,96676
2018-07-28T09:11:36.131Z,96675
2018-07-28T09:12:52.046Z,96677
2018-07-28T09:14:08.013Z,96678
2018-07-28T09:15:23.889Z,96677
2018-07-28T09:16:39.885Z,96676
2018-07-28T09:17:56.004Z,96679
2018-07-28T09:19:11.894Z,96678
2018-07-28T09:20:27.870Z,96681
2018-07-28T09:21:43.845Z,96679
2018-07-28T09:22:59.777Z,96679
2018-07-28T09:24:15.766Z,96683
2018-07-28T09:25:31.704Z,96682
2018-07-28T09:26:47.660Z,96679
2018-07-28T09:28:03.606Z,96678
2018-07-28T09:29:19.504Z,96678
2018-07-28T09:30:35.445Z,96683
2018-07-28T09:31:51.560Z,96671
2018-07-28T09:33:07.485Z,96672
2018-07-28T09:34:23.487Z,96675
2018-07-28T09:35:39.416Z,96672
2018-07-28T09:36:55.484Z,96666
2018-07-28T09:38:11.377Z,96662
2018-07-28T09:39:27.358Z,96656
2018-07-28T09:40:43.259Z,96651
2018-07-28T09:41:59.242Z,96652
2018-07-28T09:43:15.161Z,96656
2018-07-28T09:46:12.995Z,96667
2018-07-28T09:47:28.955Z,96670
2018-07-28T09:48:44.893Z,96672
2018-07-28T09:50:00.839Z,96680
2018-07-28T09:51:16.799Z,96682
2018-07-28T09:52:32.737Z,96692
2018-07-28T09:53:48.660Z,96699
2018-07-28T09:55:04.676Z,96705
2018-07-28T09:56:21.625Z,96702
2018-07-28T09:57:37.589Z,96699
2018-07-28T09:58:53.579Z,96694
2018-07-28T10:01:54.072Z,96693
2018-07-28T10:03:09.983Z,96696
2018-07-28T10:04:25.936Z,96693
2018-07-28T10:05:41.892Z,96694
2018-07-28T10:06:57.884Z,96689
2018-07-28T10:08:13.811Z,96690
2018-07-28T10:09:29.724Z,96699
2018-07-28T10:10:45.678Z,96699
2018-07-28T10:12:01.556Z,96692
2018-07-28T10:13:17.480Z,96689
2018-07-28T10:14:33.399Z,96680
2018-07-28T10:15:49.316Z,96680
2018-07-28T10:17:05.270Z,96684
2018-07-28T10:18:21.273Z,96687
2018-07-28T10:19:37.167Z,96684
2018-07-28T10:20:53.114Z,96688
2018-07-28T10:22:09.073Z,96684
2018-07-28T10:23:25.043Z,96678
2018-07-28T10:24:41.011Z,96678
2018-07-28T10:25:56.831Z,96673
2018-07-28T10:27:12.749Z,96668
2018-07-28T10:28:28.748Z,96671
2018-07-28T10:29:44.609Z,96672
2018-07-28T10:31:00.552Z,96674
2018-07-28T10:32:16.507Z,96677
2018-07-28T10:33:32.480Z,96680
2018-07-28T10:34:48.393Z,96686
2018-07-28T10:36:04.359Z,96680
2018-07-28T10:37:20.300Z,96678
2018-07-28T10:38:36.265Z,96681
2018-07-28T10:39:52.149Z,96686
2018-07-28T10:41:08.039Z,96687
2018-07-28T10:42:23.945Z,96684
2018-07-28T10:43:39.920Z,96688
2018-07-28T10:44:55.852Z,96683
2018-07-28T10:46:11.720Z,96688
2018-07-28T10:47:27.582Z,96686
2018-07-28T10:48:43.510Z,96685
2018-07-28T10:49:59.397Z,96680
2018-07-28T10:51:15.364Z,96677
2018-07-28T10:52:31.291Z,96673
2018-07-28T10:53:47.218Z,96677
2018-07-28T10:55:03.115Z,96676
2018-07-28T10:56:19.103Z,96679
2018-07-28T10:57:34.984Z,96676
2018-07-28T10:58:50.875Z,96674
2018-07-28T11:00:06.842Z,96674
2018-07-28T11:01:22.676Z,96675
2018-07-28T11:02:38.601Z,96666
2018-07-28T11:03:54.522Z,96668
2018-07-28T11:05:10.444Z,96660
2018-07-28T11:06:26.371Z,96658
2018-07-28T11:07:42.313Z,96661
2018-07-28T11:08:58.260Z,96662
2018-07-28T11:10:14.217Z,96660
2018-07-28T11:11:30.205Z,96665
2018-07-28T11:12:46.133Z,96667
2018-07-28T11:14:02.078Z,96662
2018-07-28T11:15:17.997Z,96664
2018-07-28T11:16:33.901Z,96667
2018-07-28T11:17:49.840Z,96669
2018-07-28T11:20:46.637Z,96672
2018-07-28T11:22:02.557Z,96672
2018-07-28T11:23:18.502Z,96670
2018-07-28T11:24:34.423Z,96665
2018-07-28T11:25:50.390Z,96661
2018-07-28T11:27:06.260Z,96660
2018-07-28T11:28:22.214Z,96666
2018-07-28T11:29:38.168Z,96660
2018-07-28T11:30:54.123Z,96660
2018-07-28T11:32:10.079Z,96656
2018-07-28T11:33:26.186Z,96652
2018-07-28T11:34:42.061Z,96650
2018-07-28T11:35:57.979Z,96651
2018-07-28T11:37:13.915Z,96651
2018-07-28T11:38:29.929Z,96652
2018-07-28T11:39:45.800Z,96650
2018-07-28T11:41:01.869Z,96653
2018-07-28T11:42:17.825Z,96655
2018-07-28T11:43:33.746Z,96661
2018-07-28T11:44:49.699Z,96664
2018-07-28T11:46:05.667Z,96663
2018-07-28T11:47:21.578Z,96666
2018-07-28T11:48:37.542Z,96666
2018-07-28T11:49:54.483Z,96668
2018-07-28T11:51:10.461Z,96669
2018-07-28T11:52:26.374Z,96669
2018-07-28T11:53:42.312Z,96675
2018-07-28T11:54:58.232Z,96674
2018-07-28T11:56:14.147Z,96676
2018-07-28T11:57:31.042Z,96678
2018-07-28T11:58:47.027Z,96678
2018-07-28T12:00:02.933Z,96678
2018-07-28T12:01:18.862Z,96684
2018-07-28T12:02:34.785Z,96682
2018-07-28T12:03:50.699Z,96684
2018-07-28T12:05:06.753Z,96681
2018-07-28T12:06:22.739Z,96681
2018-07-28T12:07:38.644Z,96681
2018-07-28T12:08:54.573Z,96683
2018-07-28T12:10:10.504Z,96685
2018-07-28T12:11:26.467Z,96687
2018-07-28T12:12:42.418Z,96689
2018-07-28T12:13:58.255Z,96685
2018-07-28T12:15:14.157Z,96686
2018-07-28T12:16:30.098Z,96685
2018-07-28T12:17:45.993Z,96686
2018-07-28T12:19:01.910Z,96684
2018-07-28T12:20:17.838Z,96692
2018-07-28T12:21:33.825Z,96690
2018-07-28T12:22:49.736Z,96693
2018-07-28T12:24:05.818Z,96691
2018-07-28T12:25:21.610Z,96689
2018-07-28T12:26:37.537Z,96696
2018-07-28T12:27:53.442Z,96697
2018-07-28T12:29:09.398Z,96697
2018-07-28T12:30:25.335Z,96690
2018-07-28T12:31:41.290Z,96692
2018-07-28T12:32:57.222Z,96698
2018-07-28T12:34:13.138Z,96696
2018-07-28T12:35:29.065Z,96698
2018-07-28T12:36:44.984Z,96699
2018-07-28T12:38:00.901Z,96698
2018-07-28T12:39:16.833Z,96701
2018-07-28T12:40:32.802Z,96701
2018-07-28T12:41:48.732Z,96696
2018-07-28T12:43:04.674Z,96699
2018-07-28T12:44:20.651Z,96705
2018-07-28T12:45:36.558Z,96701
2018-07-28T12:46:52.463Z,96705
2018-07-28T12:48:08.599Z,96713
2018-07-28T12:49:25.179Z,96713
2018-07-28T12:50:41.630Z,96714
2018-07-28T12:51:58.109Z,96715
2018-07-28T12:53:14.008Z,96712
2018-07-28T12:54:30.007Z,96715
2018-07-28T12:55:45.940Z,96711
2018-07-28T12:57:01.908Z,96717
2018-07-28T12:58:17.821Z,96715
2018-07-28T12:59:33.822Z,96715
2018-07-28T13:00:49.755Z,96725
2018-07-28T13:02:05.716Z,96722
2018-07-28T13:03:21.640Z,96721
2018-07-28T13:04:37.584Z,96723
2018-07-28T13:05:53.539Z,96719
2018-07-28T13:07:09.479Z,96722
2018-07-28T13:08:25.443Z,96724
2018-07-28T13:09:41.385Z,96726
2018-07-28T13:10:57.288Z,96729
2018-07-28T13:12:13.270Z,96723
2018-07-28T13:13:29.232Z,96727
2018-07-28T13:14:45.150Z,96724
2018-07-28T13:16:01.077Z,96725
2018-07-28T13:17:16.997Z,96729
2018-07-28T13:18:32.947Z,96734
2018-07-28T13:19:48.867Z,96729
2018-07-28T13:21:04.792Z,96731
2018-07-28T13:22:20.737Z,96732
2018-07-28T13:23:36.753Z,96729
2018-07-28T13:24:52.695Z,96726
2018-07-28T13:26:08.644Z,96724
2018-07-28T13:27:24.525Z,96720
2018-07-28T13:28:40.474Z,96719
2018-07-28T13:29:56.561Z,96722
2018-07-28T13:31:12.461Z,96726
2018-07-28T13:32:28.395Z,96719
2018-07-28T13:33:44.316Z,96719
2018-07-28T13:35:00.229Z,96718
2018-07-28T13:36:16.163Z,96711
2018-07-28T13:37:32.123Z,96719
2018-07-28T13:38:48.265Z,96716
2018-07-28T13:40:04.403Z,96716
2018-07-28T13:41:20.360Z,96723
2018-07-28T13:42:36.258Z,96713
2018-07-28T13:43:52.144Z,96717
2018-07-28T13:45:08.057Z,96713
2018-07-28T13:46:23.981Z,96713
2018-07-28T13:47:39.993Z,96716
2018-07-28T13:48:55.890Z,96710
2018-07-28T13:50:11.819Z,96713
2018-07-28T13:51:27.776Z,96709
2018-07-28T13:52:43.743Z,96716
2018-07-28T13:53:59.652Z,96711
2018-07-28T13:55:15.570Z,96717
2018-07-28T13:56:31.472Z,96717
2018-07-28T13:57:47.420Z,96718
2018-07-28T13:59:03.400Z,96716
2018-07-28T14:00:19.331Z,96713
2018-07-28T14:01:35.254Z,96718
2018-07-28T14:02:51.191Z,96717
2018-07-28T14:04:07.132Z,96719
2018-07-28T14:05:23.090Z,96719
2018-07-28T14:06:39.030Z,96711
2018-07-28T14:07:56.270Z,96706
2018-07-28T14:09:12.831Z,96707
2018-07-28T14:10:28.821Z,96711
2018-07-28T14:11:44.757Z,96705
2018-07-28T14:13:00.686Z,96713
2018-07-28T14:15:57.373Z,96715
2018-07-28T14:17:13.317Z,96714
2018-07-28T14:18:29.403Z,96715
2018-07-28T14:19:45.188Z,96717
2018-07-28T14:21:01.080Z,96719
2018-07-28T14:22:17.026Z,96725
2018-07-28T14:23:33.052Z,96725
2018-07-28T14:24:49.005Z,96728
2018-07-28T14:26:04.850Z,96740
2018-07-28T14:27:20.794Z,96733
2018-07-28T14:28:36.763Z,96731
2018-07-28T14:29:52.763Z,96725
2018-07-28T14:31:08.694Z,96723
2018-07-28T14:32:24.612Z,96727
2018-07-28T14:33:40.542Z,96720
2018-07-28T14:34:56.493Z,96725
2018-07-28T14:36:12.406Z,96727
2018-07-28T14:37:28.314Z,96730
2018-07-28T14:38:44.195Z,96728
2018-07-28T14:40:00.139Z,96737
2018-07-28T14:41:16.164Z,96734
2018-07-28T14:42:32.071Z,96735
2018-07-28T14:43:48.031Z,96735
2018-07-28T14:45:03.960Z,96737
2018-07-28T14:46:19.832Z,96742
2018-07-28T14:47:35.722Z,96745
2018-07-28T14:48:51.636Z,96747
2018-07-28T14:50:07.639Z,96749
2018-07-28T14:51:23.565Z,96753
2018-07-28T14:52:39.477Z,96756
2018-07-28T14:53:55.440Z,96752
2018-07-28T14:55:11.377Z,96754
2018-07-28T14:56:27.272Z,96758
2018-07-28T14:57:44.179Z,96756
2018-07-28T14:59:00.116Z,96758
2018-07-28T15:00:16.032Z,96762
2018-07-28T15:01:31.960Z,96766
2018-07-28T15:02:47.849Z,96756
2018-07-28T15:04:03.776Z,96756
2018-07-28T15:05:19.738Z,96760
2018-07-28T15:06:35.716Z,96762
2018-07-28T15:07:51.631Z,96763
2018-07-28T15:09:07.613Z,96763
2018-07-28T15:10:23.471Z,96764
2018-07-28T15:11:39.322Z,96760
2018-07-28T15:12:55.257Z,96763
2018-07-28T15:14:11.178Z,96761
2018-07-28T15:15:27.114Z,96766
2018-07-28T15:16:43.115Z,96757
2018-07-28T15:17:59.129Z,96758
2018-07-28T15:19:15.075Z,96752
2018-07-28T15:20:31.066Z,96758
2018-07-28T15:21:47.145Z,96759
2018-07-28T15:23:03.227Z,96754
2018-07-28T15:24:19.175Z,96756
2018-07-28T15:25:35.133Z,96755
2018-07-28T15:26:51.057Z,96756
2018-07-28T15:29:48.491Z,96765
2018-07-28T15:31:04.425Z,96772
2018-07-28T15:32:20.316Z,96771
2018-07-28T15:33:36.272Z,96764
2018-07-28T15:34:52.190Z,96762
2018-07-28T15:36:08.099Z,96772
2018-07-28T15:37:24.017Z,96764
2018-07-28T15:38:39.953Z,96763
2018-07-28T15:39:55.858Z,96762
2018-07-28T15:41:11.762Z,96756
2018-07-28T15:42:27.668Z,96756
2018-07-28T15:43:43.618Z,96750
2018-07-28T15:44:59.522Z,96751
2018-07-28T15:46:15.452Z,96754
2018-07-28T15:47:31.381Z,96756
2018-07-28T15:48:47.379Z,96758
2018-07-28T15:50:03.322Z,96755
2018-07-28T15:51:19.414Z,96754
2018-07-28T15:52:35.323Z,96756
2018-07-28T15:55:23.056Z,96760
2018-07-28T15:56:38.970Z,96752
2018-07-28T15:57:54.893Z,96751
2018-07-28T15:59:10.851Z,96747
2018-07-28T16:00:26.794Z,96746
2018-07-28T16:01:42.823Z,96745
2018-07-28T16:02:58.680Z,96751
2018-07-28T16:04:14.600Z,96748
2018-07-28T16:05:30.515Z,96751
2018-07-28T16:06:46.452Z,96749
2018-07-28T16:08:02.364Z,96744
2018-07-28T16:09:18.321Z,96744
2018-07-28T16:10:34.240Z,96739
2018-07-28T16:11:50.139Z,96738
2018-07-28T16:13:06.023Z,96740
2018-07-28T16:14:21.935Z,96745
2018-07-28T16:15:37.895Z,96748
2018-07-28T16:16:53.771Z,96750
2018-07-28T16:18:09.659Z,96750
2018-07-28T16:19:25.567Z,96757
2018-07-28T16:20:41.497Z,96755
2018-07-28T16:21:57.392Z,96756
2018-07-28T16:23:13.308Z,96755
2018-07-28T16:26:09.697Z,96756
2018-07-28T16:27:25.589Z,96767
2018-07-28T16:28:41.473Z,96769
2018-07-28T16:29:57.369Z,96769
2018-07-28T16:31:13.272Z,96776